createdAt,value
2022-12-15T00:02:13.419Z,94429.69
2022-12-15T00:05:35.253Z,94429.13
2022-12-15T00:08:56.585Z,94433.88
2022-12-15T00:12:18.681Z,94434.28
2022-12-15T00:15:41.156Z,94441.06
2022-12-15T00:19:03.019Z,94428.84
2022-12-15T00:22:25.340Z,94435.22
2022-12-15T00:25:47.568Z,94427.47
2022-12-15T00:29:09.324Z,94429.16
2022-12-15T00:32:30.731Z,94433.88
2022-12-15T00:35:53.504Z,94438.03
2022-12-15T00:39:01.951Z,94438.22
2022-12-15T00:42:09.191Z,94435.94
2022-12-15T00:45:12.512Z,94425.28
2022-12-15T00:48:16.812Z,94431.69
2022-12-15T00:51:20.949Z,94432.44
2022-12-15T00:54:43.432Z,94423.63
2022-12-15T00:58:04.813Z,94431.16
2022-12-15T01:01:27.690Z,94424.81
2022-12-15T01:04:49.208Z,94431.59
2022-12-15T01:08:10.585Z,94430.22
2022-12-15T01:11:33.089Z,94430.63
2022-12-15T01:14:54.854Z,94426.38
2022-12-15T01:18:16.199Z,94426.44
2022-12-15T01:21:24.096Z,94425.91
2022-12-15T01:24:27.860Z,94422.09
2022-12-15T01:27:31.102Z,94427.31
2022-12-15T01:30:34.767Z,94428.38
2022-12-15T01:33:38.837Z,94428.97
2022-12-15T01:36:42.538Z,94424.84
2022-12-15T01:40:04.552Z,94438.91
2022-12-15T01:43:19.014Z,94440.59
2022-12-15T01:46:25.860Z,94434.41
2022-12-15T01:49:32.365Z,94453.06
2022-12-15T01:52:35.861Z,94457.75
2022-12-15T01:55:41.295Z,94449.13
2022-12-15T01:58:49.176Z,94451.22
2022-12-15T02:01:52.164Z,94450.03
2022-12-15T02:04:58.899Z,94449.16
2022-12-15T02:08:04.294Z,94447.22
2022-12-15T02:11:29.058Z,94438.47
2022-12-15T02:14:46.492Z,94431.53
2022-12-15T02:18:04.672Z,94433.59
2022-12-15T02:21:41.549Z,94434.03
2022-12-15T02:25:19.164Z,94425.66
2022-12-15T02:28:37.930Z,94427.34
2022-12-15T02:31:56.047Z,94427.59
2022-12-15T02:35:12.743Z,94426.28
2022-12-15T02:38:16.834Z,94423.09
2022-12-15T02:41:39.289Z,94427.44
2022-12-15T02:44:52.207Z,94419.50
2022-12-15T02:48:12.635Z,94423.75
2022-12-15T02:51:49.482Z,94411.88
2022-12-15T02:55:18.301Z,94414.13
2022-12-15T02:58:45.697Z,94424.41
2022-12-15T03:01:57.185Z,94414.19
2022-12-15T03:05:00.967Z,94421.31
2022-12-15T03:08:04.251Z,94417.13
2022-12-15T03:11:08.427Z,94413.72
2022-12-15T03:14:11.776Z,94401.09
2022-12-15T03:17:15.670Z,94403.81
2022-12-15T03:20:18.931Z,94399.09
2022-12-15T03:23:23.919Z,94392.94
2022-12-15T03:26:27.813Z,94389.16
2022-12-15T03:29:30.906Z,94390.72
2022-12-15T03:32:34.830Z,94393.59
2022-12-15T03:35:37.726Z,94394.38
2022-12-15T03:38:40.723Z,94385.84
2022-12-15T03:41:43.624Z,94384.09
2022-12-15T03:44:46.578Z,94379.28
2022-12-15T03:47:49.912Z,94380.09
2022-12-15T03:50:53.208Z,94373.63
2022-12-15T03:53:56.188Z,94367.13
2022-12-15T03:56:59.178Z,94367.63
2022-12-15T04:00:02.137Z,94365.88
2022-12-15T04:03:15.394Z,94372.84
2022-12-15T04:06:19.086Z,94369.84
2022-12-15T04:09:22.917Z,94368.25
2022-12-15T04:12:25.779Z,94363.13
2022-12-15T04:15:29.921Z,94363.91
2022-12-15T04:18:33.545Z,94357.06
2022-12-15T04:21:37.249Z,94357.56
2022-12-15T04:24:58.809Z,94360.06
2022-12-15T04:28:21.362Z,94356.63
2022-12-15T04:31:47.081Z,94348.66
2022-12-15T04:35:09.382Z,94358.38
2022-12-15T04:38:31.461Z,94342.06
2022-12-15T04:41:53.755Z,94345.91
2022-12-15T04:45:21.047Z,94340.78
2022-12-15T04:48:43.764Z,94335.13
2022-12-15T04:52:06.064Z,94332.00
2022-12-15T04:55:28.121Z,94317.38
2022-12-15T04:58:49.398Z,94323.63
2022-12-15T05:02:10.905Z,94321.03
2022-12-15T05:05:32.852Z,94320.72
2022-12-15T05:08:54.319Z,94319.47
2022-12-15T05:12:15.493Z,94309.75
2022-12-15T05:15:37.109Z,94313.38
2022-12-15T05:18:58.521Z,94314.63
2022-12-15T05:22:20.174Z,94322.22
2022-12-15T05:25:42.182Z,94317.94
2022-12-15T05:29:04.257Z,94325.66
2022-12-15T05:32:09.404Z,94323.56
2022-12-15T05:35:12.809Z,94329.69
2022-12-15T05:38:15.620Z,94321.78
2022-12-15T05:41:20.854Z,94315.31
2022-12-15T05:44:25.670Z,94321.00
2022-12-15T05:47:29.295Z,94314.06
2022-12-15T05:50:32.325Z,94316.63
2022-12-15T05:53:38.259Z,94311.72
2022-12-15T05:56:42.074Z,94310.22
2022-12-15T05:59:45.396Z,94315.78
2022-12-15T06:02:48.303Z,94314.94
2022-12-15T06:05:56.595Z,94323.78
2022-12-15T06:09:00.476Z,94313.91
2022-12-15T06:12:04.597Z,94310.19
2022-12-15T06:15:08.696Z,94315.03
2022-12-15T06:18:12.339Z,94311.44
2022-12-15T06:21:22.204Z,94315.03
2022-12-15T06:24:26.544Z,94323.59
2022-12-15T06:27:29.392Z,94325.91
2022-12-15T06:30:33.440Z,94316.00
2022-12-15T06:33:37.255Z,94321.38
2022-12-15T06:36:40.526Z,94331.53
2022-12-15T06:39:43.488Z,94322.44
2022-12-15T06:42:46.414Z,94329.28
2022-12-15T06:45:50.519Z,94336.75
2022-12-15T06:48:53.798Z,94328.16
2022-12-15T06:51:57.354Z,94338.59
2022-12-15T06:55:00.956Z,94339.28
2022-12-15T06:58:03.991Z,94345.72
2022-12-15T07:01:08.574Z,94340.38
2022-12-15T07:04:12.111Z,94349.84
2022-12-15T07:07:15.159Z,94353.94
2022-12-15T07:10:19.043Z,94352.66
2022-12-15T07:13:23.692Z,94359.59
2022-12-15T07:16:27.694Z,94355.69
2022-12-15T07:19:31.049Z,94358.66
2022-12-15T07:22:34.565Z,94361.88
2022-12-15T07:25:38.596Z,94367.41
2022-12-15T07:28:42.823Z,94375.38
2022-12-15T07:31:46.704Z,94374.19
2022-12-15T07:34:50.303Z,94375.47
2022-12-15T07:37:53.159Z,94378.13
2022-12-15T07:40:56.557Z,94388.66
2022-12-15T07:43:59.653Z,94378.53
2022-12-15T07:47:03.234Z,94385.75
2022-12-15T07:50:07.008Z,94387.72
2022-12-15T07:53:10.036Z,94395.09
2022-12-15T07:56:13.931Z,94400.34
2022-12-15T07:59:17.768Z,94394.69
2022-12-15T08:02:21.720Z,94399.16
2022-12-15T08:05:25.547Z,94408.38
2022-12-15T08:08:28.867Z,94405.72
2022-12-15T08:11:36.045Z,94407.16
2022-12-15T08:14:38.988Z,94407.63
2022-12-15T08:17:42.752Z,94414.38
2022-12-15T08:20:46.933Z,94414.63
2022-12-15T08:23:53.690Z,94417.69
2022-12-15T08:26:57.331Z,94424.59
2022-12-15T08:30:00.216Z,94420.41
2022-12-15T08:33:04.960Z,94425.13
2022-12-15T08:36:10.609Z,94429.09
2022-12-15T08:39:14.835Z,94428.06
2022-12-15T08:42:18.711Z,94436.53
2022-12-15T08:45:22.640Z,94434.84
2022-12-15T08:48:26.211Z,94434.06
2022-12-15T08:51:32.044Z,94442.94
2022-12-15T08:54:38.071Z,94444.44
2022-12-15T08:57:42.029Z,94451.34
2022-12-15T09:00:46.374Z,94443.25
2022-12-15T09:03:50.562Z,94442.94
2022-12-15T09:06:55.269Z,94452.41
2022-12-15T09:09:58.293Z,94452.16
2022-12-15T09:13:02.360Z,94451.88
2022-12-15T09:16:10.785Z,94458.97
2022-12-15T09:19:14.581Z,94459.50
2022-12-15T09:22:18.273Z,94470.66
2022-12-15T09:25:21.367Z,94471.84
2022-12-15T09:28:24.954Z,94467.84
2022-12-15T09:31:32.118Z,94468.25
2022-12-15T09:34:35.311Z,94479.88
2022-12-15T09:37:38.511Z,94480.63
2022-12-15T09:40:41.421Z,94489.78
2022-12-15T09:44:02.714Z,94487.63
2022-12-15T09:47:44.727Z,94498.09
2022-12-15T09:50:51.701Z,94504.47
2022-12-15T09:53:56.073Z,94509.88
2022-12-15T09:57:04.011Z,94518.38
2022-12-15T10:00:50.686Z,94520.66
2022-12-15T10:04:32.865Z,94520.41
2022-12-15T10:07:44.299Z,94516.94
2022-12-15T10:11:34.427Z,94523.72
2022-12-15T10:14:50.694Z,94528.72
2022-12-15T10:18:03.455Z,94531.97
2022-12-15T10:21:07.224Z,94535.97
2022-12-15T10:28:13.730Z,94542.91
2022-12-15T10:31:31.730Z,94540.00
2022-12-15T10:34:39.526Z,94541.50
2022-12-15T10:37:43.777Z,94546.97
2022-12-15T10:40:59.168Z,94549.94
2022-12-15T10:44:03.638Z,94552.50
2022-12-15T10:47:18.655Z,94563.00
2022-12-15T10:50:27.939Z,94565.72
2022-12-15T10:54:10.311Z,94570.22
2022-12-15T10:57:29.164Z,94569.22
2022-12-15T11:00:33.960Z,94572.69
2022-12-15T11:03:39.812Z,94567.94
2022-12-15T11:06:43.594Z,94570.72
2022-12-15T11:09:51.075Z,94574.97
2022-12-15T11:13:16.950Z,94582.38
2022-12-15T11:16:20.763Z,94585.63
2022-12-15T11:19:48.368Z,94583.84
2022-12-15T11:23:02.564Z,94596.00
2022-12-15T11:26:16.895Z,94595.72
2022-12-15T11:29:59.336Z,94599.19
2022-12-15T11:33:04.280Z,94602.19
2022-12-15T11:36:36.622Z,94612.06
2022-12-15T11:39:59.122Z,94608.41
2022-12-15T11:43:23.893Z,94617.16
2022-12-15T11:46:43.081Z,94619.63
2022-12-15T11:49:53.452Z,94626.09
2022-12-15T11:53:14.766Z,94623.38
2022-12-15T11:56:37.749Z,94635.06
2022-12-15T11:59:58.075Z,94627.34
2022-12-15T12:03:09.958Z,94628.13
2022-12-15T12:06:20.526Z,94637.06
2022-12-15T12:13:13.848Z,94644.13
2022-12-15T12:16:26.532Z,94646.72
2022-12-15T12:20:14.268Z,94648.41
2022-12-15T12:23:24.989Z,94648.84
2022-12-15T12:26:42.119Z,94648.34
2022-12-15T12:29:52.391Z,94654.81
2022-12-15T12:33:29.137Z,94653.13
2022-12-15T12:37:01.847Z,94662.78
2022-12-15T12:40:32.295Z,94667.97
2022-12-15T12:44:34.371Z,94680.44
2022-12-15T12:47:42.207Z,94672.22
2022-12-15T12:50:45.247Z,94677.22
2022-12-15T12:53:55.282Z,94685.22
2022-12-15T12:56:58.221Z,94682.31
2022-12-15T13:00:05.151Z,94676.81
2022-12-15T13:03:20.961Z,94690.41
2022-12-15T13:06:43.928Z,94690.16
2022-12-15T13:10:21.562Z,94695.06
2022-12-15T13:13:34.257Z,94706.00
2022-12-15T13:20:01.240Z,94715.94
2022-12-15T13:23:22.352Z,94706.25
2022-12-15T13:26:31.861Z,94711.16
2022-12-15T13:29:36.094Z,94717.03
2022-12-15T13:32:48.683Z,94715.19
2022-12-15T13:35:54.973Z,94715.63
2022-12-15T13:38:58.809Z,94729.00
2022-12-15T13:45:37.086Z,94731.13
2022-12-15T13:49:01.224Z,94732.69
2022-12-15T13:52:13.874Z,94737.31
2022-12-15T13:55:28.216Z,94745.91
2022-12-15T13:58:40.333Z,94750.38
2022-12-15T14:01:51.464Z,94750.53
2022-12-15T14:05:13.168Z,94748.53
2022-12-15T14:08:17.322Z,94748.53
2022-12-15T14:11:51.223Z,94762.81
2022-12-15T14:14:50.584Z,94768.72
2022-12-15T14:17:57.367Z,94763.66
2022-12-15T14:21:06.218Z,94767.69
2022-12-15T14:24:38.952Z,94767.69
2022-12-15T14:27:43.668Z,94761.41
2022-12-15T14:30:47.019Z,94772.53
2022-12-15T14:34:07.754Z,94783.69
2022-12-15T14:37:21.191Z,94792.09
2022-12-15T14:40:28.891Z,94787.31
2022-12-15T14:43:40.603Z,94787.31
2022-12-15T14:46:51.135Z,94801.84
2022-12-15T14:49:56.879Z,94796.19
2022-12-15T14:53:06.380Z,94798.13
2022-12-15T14:56:35.846Z,94799.84
2022-12-15T14:59:42.518Z,94805.50
2022-12-15T15:02:46.480Z,94811.00
2022-12-15T15:03:04.870Z,94644.03
2022-12-15T15:03:10.626Z,94540.06
2022-12-15T15:03:12.382Z,94707.25
2022-12-15T15:06:00.923Z,94819.41
2022-12-15T15:09:32.013Z,94824.91
2022-12-15T15:12:46.415Z,94834.69
2022-12-15T15:15:58.654Z,94828.75
2022-12-15T15:19:05.032Z,94828.44
2022-12-15T15:22:32.406Z,94836.09
2022-12-15T15:25:49.463Z,94846.50
2022-12-15T15:28:52.760Z,94846.97
2022-12-15T15:32:22.331Z,94855.31
2022-12-15T15:35:31.616Z,94854.63
2022-12-15T15:38:38.912Z,94859.59
2022-12-15T15:41:43.409Z,94858.56
2022-12-15T15:44:47.141Z,94860.25
2022-12-15T15:47:52.876Z,94868.94
2022-12-15T15:51:12.365Z,94870.09
2022-12-15T15:54:18.878Z,94877.06
2022-12-15T15:57:21.787Z,94878.59
2022-12-15T16:00:26.269Z,94869.63
2022-12-15T16:03:29.838Z,94869.09
2022-12-15T16:06:33.435Z,94875.41
2022-12-15T16:09:36.729Z,94874.38
2022-12-15T16:12:53.449Z,94880.41
2022-12-15T16:15:56.536Z,94882.00
2022-12-15T16:19:00.117Z,94886.44
2022-12-15T16:22:03.839Z,94887.66
2022-12-15T16:25:13.088Z,94890.00
2022-12-15T16:28:19.474Z,94883.97
2022-12-15T16:31:37.141Z,94889.00
2022-12-15T16:34:43.799Z,94893.72
2022-12-15T16:37:48.220Z,94892.34
2022-12-15T16:40:52.457Z,94898.66
2022-12-15T16:43:56.598Z,94914.59
2022-12-15T16:47:00.653Z,94911.94
2022-12-15T16:50:04.532Z,94912.59
2022-12-15T16:53:20.891Z,94912.25
2022-12-15T16:56:24.104Z,94917.00
2022-12-15T16:59:35.969Z,94912.16
2022-12-15T17:02:42.564Z,94920.13
2022-12-15T17:05:55.577Z,94914.09
2022-12-15T17:08:59.284Z,94921.50
2022-12-15T17:12:02.719Z,94914.19
2022-12-15T17:15:17.606Z,94923.44
2022-12-15T17:18:21.292Z,94923.44
2022-12-15T17:21:33.448Z,94924.00
2022-12-15T17:24:37.157Z,94933.69
2022-12-15T17:27:41.109Z,94925.34
2022-12-15T17:30:44.689Z,94932.34
2022-12-15T17:33:49.009Z,94933.50
2022-12-15T17:36:53.424Z,94935.75
2022-12-15T17:39:56.633Z,94930.59
2022-12-15T17:42:59.566Z,94928.13
2022-12-15T17:46:02.869Z,94928.72
2022-12-15T17:49:06.499Z,94942.97
2022-12-15T17:52:30.636Z,94940.19
2022-12-15T17:55:35.690Z,94943.97
2022-12-15T17:58:39.314Z,94941.72
2022-12-15T18:01:46.508Z,94945.09
2022-12-15T18:04:50.914Z,94941.63
2022-12-15T18:07:57.498Z,94943.25
2022-12-15T18:11:01.170Z,94952.59
2022-12-15T18:14:10.440Z,94955.84
2022-12-15T18:17:14.451Z,94965.06
2022-12-15T18:20:19.468Z,94969.44
2022-12-15T18:23:27.629Z,94975.53
2022-12-15T18:26:38.257Z,94981.00
2022-12-15T18:29:41.441Z,94989.22
2022-12-15T18:32:45.634Z,94985.84
2022-12-15T18:35:51.791Z,94989.41
2022-12-15T18:38:55.555Z,94991.34
2022-12-15T18:41:59.484Z,94990.28
2022-12-15T18:45:05.511Z,94998.44
2022-12-15T18:48:29.960Z,95001.94
2022-12-15T18:51:33.556Z,94999.47
2022-12-15T18:54:36.982Z,95011.16
2022-12-15T18:57:41.303Z,95007.19
2022-12-15T19:00:44.939Z,95002.56
2022-12-15T19:03:48.618Z,95016.38
2022-12-15T19:06:52.546Z,95010.41
2022-12-15T19:09:55.715Z,95014.03
2022-12-15T19:13:00.215Z,95018.69
2022-12-15T19:16:05.948Z,95023.88
2022-12-15T19:19:30.920Z,95026.59
2022-12-15T19:22:33.816Z,95031.91
2022-12-15T19:25:36.778Z,95032.78
2022-12-15T19:28:40.408Z,95036.06
2022-12-15T19:31:43.402Z,95035.78
2022-12-15T19:34:47.019Z,95031.81
2022-12-15T19:37:55.526Z,95027.69
2022-12-15T19:40:59.708Z,95031.22
2022-12-15T19:44:02.743Z,95033.50
2022-12-15T19:47:12.236Z,95037.63
2022-12-15T19:50:17.998Z,95038.25
2022-12-15T19:53:24.852Z,95042.66
2022-12-15T19:56:29.712Z,95038.00
2022-12-15T19:59:33.180Z,95058.72
2022-12-15T20:02:36.256Z,95048.78
2022-12-15T20:05:39.338Z,95045.28
2022-12-15T20:08:47.330Z,95051.56
2022-12-15T20:11:50.916Z,95061.34
2022-12-15T20:14:54.008Z,95065.78
2022-12-15T20:17:57.786Z,95067.84
2022-12-15T20:21:02.274Z,95068.31
2022-12-15T20:24:20.119Z,95074.09
2022-12-15T20:27:23.914Z,95070.97
2022-12-15T20:30:30.378Z,95071.09
2022-12-15T20:33:34.607Z,95072.47
2022-12-15T20:36:39.371Z,95072.31
2022-12-15T20:39:42.527Z,95087.31
2022-12-15T20:42:45.802Z,95084.66
2022-12-15T20:46:04.012Z,95092.78
2022-12-15T20:49:16.548Z,95099.75
2022-12-15T20:52:26.397Z,95094.13
2022-12-15T20:55:30.479Z,95103.94
2022-12-15T20:58:41.235Z,95096.91
2022-12-15T21:01:45.174Z,95101.97
2022-12-15T21:04:49.701Z,95101.50
2022-12-15T21:07:53.524Z,95100.34
2022-12-15T21:11:21.630Z,95100.72
2022-12-15T21:14:28.108Z,95099.88
2022-12-15T21:17:31.674Z,95095.81
2022-12-15T21:20:34.818Z,95101.34
2022-12-15T21:23:42.551Z,95105.91
2022-12-15T21:26:46.977Z,95110.69
2022-12-15T21:33:13.126Z,95107.75
2022-12-15T21:36:18.779Z,95105.28
2022-12-15T21:39:33.433Z,95107.00
2022-12-15T21:42:37.683Z,95112.69
2022-12-15T21:45:40.572Z,95113.06
2022-12-15T21:49:02.920Z,95110.03
2022-12-15T21:52:06.327Z,95119.28
2022-12-15T21:55:20.205Z,95120.53
2022-12-15T21:58:27.947Z,95122.63
2022-12-15T22:01:32.550Z,95120.91
2022-12-15T22:04:36.477Z,95114.81
2022-12-15T22:07:40.335Z,95120.69
2022-12-15T22:10:45.954Z,95117.59
2022-12-15T22:13:52.320Z,95121.03
2022-12-15T22:16:57.040Z,95116.84
2022-12-15T22:20:00.577Z,95120.44
2022-12-15T22:23:03.471Z,95128.00
2022-12-15T22:26:07.135Z,95124.78
2022-12-15T22:29:22.914Z,95122.63
2022-12-15T22:32:27.072Z,95127.09
2022-12-15T22:35:29.960Z,95136.59
2022-12-15T22:38:34.331Z,95139.28
2022-12-15T22:41:47.394Z,95139.06
2022-12-15T22:44:50.661Z,95139.47
2022-12-15T22:47:55.197Z,95147.22
2022-12-15T22:50:59.212Z,95143.41
2022-12-15T22:54:03.232Z,95151.38
2022-12-15T22:57:11.715Z,95140.22
2022-12-15T23:00:15.760Z,95140.41
2022-12-15T23:03:20.041Z,95151.56
2022-12-15T23:06:24.253Z,95147.97
2022-12-15T23:09:27.825Z,95145.88
2022-12-15T23:12:31.674Z,95145.88
2022-12-15T23:15:54.613Z,95149.47
2022-12-15T23:18:58.790Z,95154.00
2022-12-15T23:22:02.397Z,95142.41
2022-12-15T23:25:06.062Z,95150.16
2022-12-15T23:28:09.687Z,95156.19
2022-12-15T23:31:13.386Z,95161.50
2022-12-15T23:34:17.130Z,95168.50
2022-12-15T23:37:21.010Z,95168.84
2022-12-15T23:40:24.459Z,95161.66
2022-12-15T23:43:29.775Z,95163.72
2022-12-15T23:46:32.919Z,95167.34
2022-12-15T23:49:36.895Z,95165.38
2022-12-15T23:52:40.695Z,95172.66
2022-12-15T23:55:44.167Z,95177.38
2022-12-15T23:58:49.506Z,95171.94
